KEDE

Northeastern Regional Airport

Edenton, North Carolina, USA
METAR KEDE 221515Z AUTO 26007KT 10SM SCT013 SCT023 27/22 A3014 RMK AO2 T02670224
Observed Flight Rules
May-22 @ 15:15 UTC (17 minutes ago) Visual Flight Rules
Wind Visibility Clouds
260° at 7 knots 10 miles
  • Scattered at 1,300' AGL
  • Scattered at 2,300' AGL
Temperatures Readings
Current 27°C / 81°F
Dewpoint 22°C / 72°F
Humidity 74%
Altimeter 30.14" Hg
Pressure 1021 hPa
Elevation 6
METAR KEDE 221515Z AUTO 26007KT 10SM SCT013 SCT023 27/22 A3014 RMK AO2 T02670224
Observed Flight Rules
May-22 @ 15:15 UTC
(17 minutes ago)
VFR
Wind Visibility
260° at 7 knots 10 miles
Clouds
  • Scattered at 1,300' AGL
  • Scattered at 2,300' AGL
Temperature Dewpoint
27°C / 81°F 22°C / 72°F
Humidity Altimeter Pressure
74% 30.14" Hg 1021 hPa